Terminal Aerodrome Forecast
Issued by NWS

Home | Current Version | Previous Version | Text Only | Print | Product List | Glossary On
Versions: 1 2 3 4 5 6 7 8 9 10 11 12 13
393
FTUS45 KABQ 192340
TAFAEG
TAF
KAEG 192340Z 2000/2024 14011KT P6SM VCTS BKN100CB
      TEMPO 2000/2003 VRB15G25KT 6SM -SHRA BKN100
     FM200300 14011G21KT P6SM VCSH BKN100
     FM200600 16006KT P6SM BKN120
     FM201800 27009KT P6SM SCT060 OVC100
     FM202100 VRB20G34KT 5SM -TSRA SCT030 BKN060CB=

USA.gov is the U.S. government's official web portal to all federal, state and local government web resources and services.